sensor_id;sensor_type;location;lat;lon;timestamp;pressure;altitude;pressure_sealevel;temperature;humidity
22753;BME280;11543;43.144;24.684;2023-04-29T00:01:52;99005.31;;;9.10;66.44
22753;BME280;11543;43.144;24.684;2023-04-29T00:04:24;99000.09;;;8.99;66.56
22753;BME280;11543;43.144;24.684;2023-04-29T00:06:50;99007.72;;;8.93;66.57
22753;BME280;11543;43.144;24.684;2023-04-29T00:09:15;98999.69;;;8.74;66.63
22753;BME280;11543;43.144;24.684;2023-04-29T00:11:41;98999.91;;;8.61;67.27
22753;BME280;11543;43.144;24.684;2023-04-29T00:14:06;98999.50;;;8.66;67.14
22753;BME280;11543;43.144;24.684;2023-04-29T00:16:32;98998.00;;;8.73;67.12
22753;BME280;11543;43.144;24.684;2023-04-29T00:18:57;99000.25;;;8.78;67.07
22753;BME280;11543;43.144;24.684;2023-04-29T00:21:24;98990.81;;;8.74;66.95
22753;BME280;11543;43.144;24.684;2023-04-29T00:23:52;98989.69;;;8.76;66.95
22753;BME280;11543;43.144;24.684;2023-04-29T00:26:17;98985.31;;;8.75;66.70
22753;BME280;11543;43.144;24.684;2023-04-29T00:28:43;98980.66;;;8.77;66.45
22753;BME280;11543;43.144;24.684;2023-04-29T00:31:08;98969.00;;;8.78;66.26
22753;BME280;11543;43.144;24.684;2023-04-29T00:33:34;98980.13;;;8.83;66.54
22753;BME280;11543;43.144;24.684;2023-04-29T00:35:59;98964.91;;;8.74;66.55
22753;BME280;11543;43.144;24.684;2023-04-29T00:38:26;98969.38;;;8.54;66.71
22753;BME280;11543;43.144;24.684;2023-04-29T00:40:51;98965.91;;;8.23;66.66
22753;BME280;11543;43.144;24.684;2023-04-29T00:43:17;98964.72;;;7.97;67.47
22753;BME280;11543;43.144;24.684;2023-04-29T00:45:43;98960.72;;;7.82;68.11
22753;BME280;11543;43.144;24.684;2023-04-29T00:48:11;98972.91;;;7.75;68.89
22753;BME280;11543;43.144;24.684;2023-04-29T00:50:37;98971.00;;;7.86;69.53
22753;BME280;11543;43.144;24.684;2023-04-29T00:53:03;98961.34;;;7.95;68.98
22753;BME280;11543;43.144;24.684;2023-04-29T00:55:29;98960.78;;;8.01;69.06
22753;BME280;11543;43.144;24.684;2023-04-29T00:57:56;98958.69;;;8.05;68.56
22753;BME280;11543;43.144;24.684;2023-04-29T01:00:21;98944.47;;;8.04;68.38
22753;BME280;11543;43.144;24.684;2023-04-29T01:02:47;98958.00;;;8.12;68.46
22753;BME280;11543;43.144;24.684;2023-04-29T01:05:14;98948.41;;;8.00;68.38
22753;BME280;11543;43.144;24.684;2023-04-29T01:07:42;98950.00;;;8.12;68.85
22753;BME280;11543;43.144;24.684;2023-04-29T01:15:30;98947.03;;;8.15;68.75
22753;BME280;11543;43.144;24.684;2023-04-29T01:18:08;98941.56;;;8.17;68.70
22753;BME280;11543;43.144;24.684;2023-04-29T01:20:35;98945.50;;;8.22;69.00
22753;BME280;11543;43.144;24.684;2023-04-29T01:23:02;98943.13;;;8.29;68.59
22753;BME280;11543;43.144;24.684;2023-04-29T01:25:28;98945.41;;;8.34;68.35
22753;BME280;11543;43.144;24.684;2023-04-29T01:28:07;98941.28;;;8.20;68.19
22753;BME280;11543;43.144;24.684;2023-04-29T01:30:50;98941.34;;;7.89;68.37
22753;BME280;11543;43.144;24.684;2023-04-29T01:33:30;98938.59;;;7.70;69.14
22753;BME280;11543;43.144;24.684;2023-04-29T01:36:30;98932.97;;;7.73;69.98
22753;BME280;11543;43.144;24.684;2023-04-29T01:41:55;98927.69;;;7.83;69.77
22753;BME280;11543;43.144;24.684;2023-04-29T01:44:23;98936.84;;;7.90;69.46
22753;BME280;11543;43.144;24.684;2023-04-29T01:46:52;98929.00;;;7.98;69.23
22753;BME280;11543;43.144;24.684;2023-04-29T01:49:23;98933.53;;;8.07;68.75
22753;BME280;11543;43.144;24.684;2023-04-29T01:51:49;98933.81;;;8.14;68.74
22753;BME280;11543;43.144;24.684;2023-04-29T01:54:15;98920.59;;;8.12;68.84
22753;BME280;11543;43.144;24.684;2023-04-29T01:56:41;98930.56;;;8.10;68.59
22753;BME280;11543;43.144;24.684;2023-04-29T01:59:06;98917.59;;;7.96;68.92
22753;BME280;11543;43.144;24.684;2023-04-29T02:01:32;98923.94;;;7.95;69.50
22753;BME280;11543;43.144;24.684;2023-04-29T02:03:58;98935.06;;;8.00;69.30
22753;BME280;11543;43.144;24.684;2023-04-29T02:06:24;98934.22;;;8.09;69.01
22753;BME280;11543;43.144;24.684;2023-04-29T02:08:50;98934.94;;;8.11;68.41
22753;BME280;11543;43.144;24.684;2023-04-29T02:11:16;98925.63;;;7.96;68.67
22753;BME280;11543;43.144;24.684;2023-04-29T02:13:42;98921.66;;;7.81;69.17
22753;BME280;11543;43.144;24.684;2023-04-29T02:16:12;98922.44;;;7.72;69.21
22753;BME280;11543;43.144;24.684;2023-04-29T02:18:37;98916.09;;;7.73;69.70
22753;BME280;11543;43.144;24.684;2023-04-29T02:21:04;98917.78;;;7.74;69.92
22753;BME280;11543;43.144;24.684;2023-04-29T02:23:29;98920.72;;;7.71;69.44
22753;BME280;11543;43.144;24.684;2023-04-29T02:25:55;98907.94;;;7.64;70.07
22753;BME280;11543;43.144;24.684;2023-04-29T02:28:20;98910.06;;;7.71;70.44
22753;BME280;11543;43.144;24.684;2023-04-29T02:30:48;98914.00;;;7.76;70.11
22753;BME280;11543;43.144;24.684;2023-04-29T02:33:13;98901.34;;;7.68;70.02
22753;BME280;11543;43.144;24.684;2023-04-29T02:35:39;98911.16;;;7.68;70.08
22753;BME280;11543;43.144;24.684;2023-04-29T02:38:04;98911.13;;;7.58;70.24
22753;BME280;11543;43.144;24.684;2023-04-29T02:40:30;98911.09;;;7.49;70.29
22753;BME280;11543;43.144;24.684;2023-04-29T02:42:55;98901.81;;;7.43;70.54
22753;BME280;11543;43.144;24.684;2023-04-29T02:45:21;98911.09;;;7.49;70.90
22753;BME280;11543;43.144;24.684;2023-04-29T02:47:47;98900.09;;;7.42;70.82
22753;BME280;11543;43.144;24.684;2023-04-29T02:50:13;98914.44;;;7.41;70.93
22753;BME280;11543;43.144;24.684;2023-04-29T02:52:38;98902.06;;;7.40;71.39
22753;BME280;11543;43.144;24.684;2023-04-29T02:55:06;98921.03;;;7.37;71.23
22753;BME280;11543;43.144;24.684;2023-04-29T02:57:32;98913.88;;;7.17;70.84
22753;BME280;11543;43.144;24.684;2023-04-29T02:59:58;98907.84;;;7.15;71.14
22753;BME280;11543;43.144;24.684;2023-04-29T03:02:23;98914.06;;;7.25;71.62
22753;BME280;11543;43.144;24.684;2023-04-29T03:04:49;98917.72;;;7.24;72.33
22753;BME280;11543;43.144;24.684;2023-04-29T03:07:15;98917.72;;;7.24;72.33
22753;BME280;11543;43.144;24.684;2023-04-29T03:09:41;98921.38;;;7.23;72.40
22753;BME280;11543;43.144;24.684;2023-04-29T03:12:07;98921.63;;;7.20;72.55
22753;BME280;11543;43.144;24.684;2023-04-29T03:14:32;98910.13;;;7.19;72.73
22753;BME280;11543;43.144;24.684;2023-04-29T03:16:58;98925.06;;;7.31;73.01
22753;BME280;11543;43.144;24.684;2023-04-29T03:19:24;98933.47;;;7.27;72.68
22753;BME280;11543;43.144;24.684;2023-04-29T03:21:49;98932.13;;;7.12;71.98
22753;BME280;11543;43.144;24.684;2023-04-29T03:24:14;98926.25;;;6.97;72.09
22753;BME280;11543;43.144;24.684;2023-04-29T03:26:40;98935.25;;;6.96;71.98
22753;BME280;11543;43.144;24.684;2023-04-29T03:29:07;98938.94;;;7.05;73.12
22753;BME280;11543;43.144;24.684;2023-04-29T03:31:33;98928.59;;;7.11;73.71
22753;BME280;11543;43.144;24.684;2023-04-29T03:33:59;98939.47;;;7.19;73.58
22753;BME280;11543;43.144;24.684;2023-04-29T03:36:24;98932.34;;;7.29;73.61
22753;BME280;11543;43.144;24.684;2023-04-29T03:38:50;98942.72;;;7.23;73.50
22753;BME280;11543;43.144;24.684;2023-04-29T03:41:15;98944.03;;;7.08;72.95
22753;BME280;11543;43.144;24.684;2023-04-29T03:43:41;98951.56;;;7.02;72.98
22753;BME280;11543;43.144;24.684;2023-04-29T03:46:09;98947.66;;;7.07;73.75
22753;BME280;11543;43.144;24.684;2023-04-29T03:48:34;98961.66;;;6.99;73.37
22753;BME280;11543;43.144;24.684;2023-04-29T03:51:01;98957.44;;;6.96;73.99
22753;BME280;11543;43.144;24.684;2023-04-29T03:53:26;98955.75;;;6.95;74.20
22753;BME280;11543;43.144;24.684;2023-04-29T03:55:52;98952.53;;;7.01;74.61
22753;BME280;11543;43.144;24.684;2023-04-29T03:58:17;98958.59;;;7.03;73.89
22753;BME280;11543;43.144;24.684;2023-04-29T04:00:43;98952.94;;;6.97;74.01
22753;BME280;11543;43.144;24.684;2023-04-29T04:03:08;98971.75;;;6.95;73.80
22753;BME280;11543;43.144;24.684;2023-04-29T04:05:34;98969.31;;;6.92;74.32
22753;BME280;11543;43.144;24.684;2023-04-29T04:07:59;98952.31;;;6.93;74.87
22753;BME280;11543;43.144;24.684;2023-04-29T04:10:25;98954.97;;;7.05;74.89
22753;BME280;11543;43.144;24.684;2023-04-29T04:12:50;98965.69;;;7.14;74.99
22753;BME280;11543;43.144;24.684;2023-04-29T04:15:16;98969.84;;;7.28;75.65
22753;BME280;11543;43.144;24.684;2023-04-29T04:17:42;98965.84;;;7.43;75.57
22753;BME280;11543;43.144;24.684;2023-04-29T04:20:08;98957.22;;;7.60;74.91
22753;BME280;11543;43.144;24.684;2023-04-29T04:22:33;98960.25;;;7.77;74.27
22753;BME280;11543;43.144;24.684;2023-04-29T04:24:59;98964.81;;;7.86;74.01
22753;BME280;11543;43.144;24.684;2023-04-29T04:27:24;98957.69;;;7.96;74.14
22753;BME280;11543;43.144;24.684;2023-04-29T04:29:53;98958.66;;;7.95;73.78
22753;BME280;11543;43.144;24.684;2023-04-29T04:32:22;98952.88;;;7.90;73.96
22753;BME280;11543;43.144;24.684;2023-04-29T04:34:48;98954.03;;;7.97;73.95
22753;BME280;11543;43.144;24.684;2023-04-29T04:37:14;98958.78;;;7.93;74.04
22753;BME280;11543;43.144;24.684;2023-04-29T04:39:40;98951.50;;;7.95;74.47
22753;BME280;11543;43.144;24.684;2023-04-29T04:42:05;98959.38;;;7.97;74.58
22753;BME280;11543;43.144;24.684;2023-04-29T04:44:31;98943.75;;;7.92;75.05
22753;BME280;11543;43.144;24.684;2023-04-29T04:46:57;98954.47;;;8.02;75.25
22753;BME280;11543;43.144;24.684;2023-04-29T04:49:25;98953.22;;;8.06;75.14
22753;BME280;11543;43.144;24.684;2023-04-29T04:51:52;98943.78;;;8.02;75.22
22753;BME280;11543;43.144;24.684;2023-04-29T04:54:17;98949.84;;;8.04;75.27
22753;BME280;11543;43.144;24.684;2023-04-29T04:56:43;98959.25;;;8.08;75.46
22753;BME280;11543;43.144;24.684;2023-04-29T04:59:08;98961.53;;;8.22;75.62
22753;BME280;11543;43.144;24.684;2023-04-29T05:01:34;98948.88;;;8.24;75.78
22753;BME280;11543;43.144;24.684;2023-04-29T05:03:59;98953.16;;;8.37;75.50
22753;BME280;11543;43.144;24.684;2023-04-29T05:06:26;98961.47;;;8.53;75.07
22753;BME280;11543;43.144;24.684;2023-04-29T05:08:52;98948.53;;;8.58;75.06
22753;BME280;11543;43.144;24.684;2023-04-29T05:11:21;98966.31;;;8.78;74.81
22753;BME280;11543;43.144;24.684;2023-04-29T05:13:47;98965.19;;;8.90;74.05
22753;BME280;11543;43.144;24.684;2023-04-29T05:16:13;98951.66;;;8.92;73.89
22753;BME280;11543;43.144;24.684;2023-04-29T05:18:39;98954.75;;;9.07;74.00
22753;BME280;11543;43.144;24.684;2023-04-29T05:21:05;98948.81;;;9.13;73.68
22753;BME280;11543;43.144;24.684;2023-04-29T05:23:30;98954.28;;;9.31;73.03
22753;BME280;11543;43.144;24.684;2023-04-29T05:26:00;98961.16;;;9.43;72.96
22753;BME280;11543;43.144;24.684;2023-04-29T05:28:25;98949.84;;;9.49;72.55
22753;BME280;11543;43.144;24.684;2023-04-29T05:30:51;98953.78;;;9.64;72.88
22753;BME280;11543;43.144;24.684;2023-04-29T05:33:17;98941.34;;;9.73;72.03
22753;BME280;11543;43.144;24.684;2023-04-29T05:35:42;98950.00;;;9.94;71.48
22753;BME280;11543;43.144;24.684;2023-04-29T05:38:08;98941.19;;;10.02;71.21
22753;BME280;11543;43.144;24.684;2023-04-29T05:40:35;98941.97;;;10.21;70.61
22753;BME280;11543;43.144;24.684;2023-04-29T05:43:00;98947.81;;;10.35;71.04
22753;BME280;11543;43.144;24.684;2023-04-29T05:45:26;98930.69;;;10.45;70.62
22753;BME280;11543;43.144;24.684;2023-04-29T05:47:52;98942.28;;;10.64;70.18
22753;BME280;11543;43.144;24.684;2023-04-29T05:50:17;98936.81;;;10.73;70.00
22753;BME280;11543;43.144;24.684;2023-04-29T05:52:45;98933.91;;;10.84;69.55
22753;BME280;11543;43.144;24.684;2023-04-29T05:55:12;98938.34;;;10.94;69.49
22753;BME280;11543;43.144;24.684;2023-04-29T05:57:37;98938.09;;;11.05;69.16
22753;BME280;11543;43.144;24.684;2023-04-29T06:00:03;98937.16;;;11.14;68.96
22753;BME280;11543;43.144;24.684;2023-04-29T06:02:30;98931.31;;;11.18;68.53
22753;BME280;11543;43.144;24.684;2023-04-29T06:04:56;98939.75;;;11.24;68.14
22753;BME280;11543;43.144;24.684;2023-04-29T06:07:22;98940.00;;;11.30;68.09
22753;BME280;11543;43.144;24.684;2023-04-29T06:09:48;98933.31;;;11.34;67.69
22753;BME280;11543;43.144;24.684;2023-04-29T06:12:15;98938.41;;;11.45;67.66
22753;BME280;11543;43.144;24.684;2023-04-29T06:14:40;98932.72;;;11.48;67.19
22753;BME280;11543;43.144;24.684;2023-04-29T06:17:06;98931.75;;;11.58;67.05
22753;BME280;11543;43.144;24.684;2023-04-29T06:19:32;98928.13;;;11.67;67.06
22753;BME280;11543;43.144;24.684;2023-04-29T06:21:58;98927.16;;;11.76;67.13
22753;BME280;11543;43.144;24.684;2023-04-29T06:24:24;98924.53;;;11.84;67.05
22753;BME280;11543;43.144;24.684;2023-04-29T06:26:49;98922.22;;;11.89;66.87
22753;BME280;11543;43.144;24.684;2023-04-29T06:29:15;98926.78;;;11.97;66.72
22753;BME280;11543;43.144;24.684;2023-04-29T06:31:43;98932.03;;;12.06;66.99
22753;BME280;11543;43.144;24.684;2023-04-29T06:34:09;98919.25;;;12.08;66.61
22753;BME280;11543;43.144;24.684;2023-04-29T06:36:35;98915.72;;;12.08;66.85
22753;BME280;11543;43.144;24.684;2023-04-29T06:39:01;98924.63;;;12.08;66.82
22753;BME280;11543;43.144;24.684;2023-04-29T06:41:26;98919.16;;;12.18;67.27
22753;BME280;11543;43.144;24.684;2023-04-29T06:43:52;98919.66;;;12.22;67.29
22753;BME280;11543;43.144;24.684;2023-04-29T06:46:17;98909.94;;;12.29;67.23
22753;BME280;11543;43.144;24.684;2023-04-29T06:48:43;98910.31;;;12.42;66.74
22753;BME280;11543;43.144;24.684;2023-04-29T06:51:08;98906.97;;;12.56;66.24
22753;BME280;11543;43.144;24.684;2023-04-29T06:53:34;98904.28;;;12.64;66.16
22753;BME280;11543;43.144;24.684;2023-04-29T06:56:00;98916.75;;;12.82;66.17
22753;BME280;11543;43.144;24.684;2023-04-29T06:58:25;98899.22;;;12.94;65.96
22753;BME280;11543;43.144;24.684;2023-04-29T07:00:51;98903.81;;;13.10;65.20
22753;BME280;11543;43.144;24.684;2023-04-29T07:03:17;98894.22;;;13.23;64.71
22753;BME280;11543;43.144;24.684;2023-04-29T07:05:43;98906.16;;;13.37;64.22
22753;BME280;11543;43.144;24.684;2023-04-29T07:08:11;98898.53;;;13.49;63.83
22753;BME280;11543;43.144;24.684;2023-04-29T07:10:37;98899.38;;;13.57;63.30
22753;BME280;11543;43.144;24.684;2023-04-29T07:13:03;98896.47;;;13.67;62.91
22753;BME280;11543;43.144;24.684;2023-04-29T07:15:29;98897.09;;;13.77;62.60
22753;BME280;11543;43.144;24.684;2023-04-29T07:17:57;98879.91;;;13.78;62.27
22753;BME280;11543;43.144;24.684;2023-04-29T07:20:24;98881.41;;;13.89;61.92
22753;BME280;11543;43.144;24.684;2023-04-29T07:22:51;98889.78;;;14.02;61.27
22753;BME280;11543;43.144;24.684;2023-04-29T07:25:17;98884.16;;;14.12;60.16
22753;BME280;11543;43.144;24.684;2023-04-29T07:27:42;98902.31;;;14.26;60.33
22753;BME280;11543;43.144;24.684;2023-04-29T07:30:08;98890.81;;;14.32;59.90
22753;BME280;11543;43.144;24.684;2023-04-29T07:32:34;98880.66;;;14.42;59.58
22753;BME280;11543;43.144;24.684;2023-04-29T07:34:59;98895.19;;;14.64;57.55
22753;BME280;11543;43.144;24.684;2023-04-29T07:37:25;98887.81;;;14.81;55.99
22753;BME280;11543;43.144;24.684;2023-04-29T07:39:51;98884.63;;;15.00;56.60
22753;BME280;11543;43.144;24.684;2023-04-29T07:42:17;98891.09;;;15.14;56.25
22753;BME280;11543;43.144;24.684;2023-04-29T07:44:42;98894.38;;;15.39;54.61
22753;BME280;11543;43.144;24.684;2023-04-29T07:47:09;98878.63;;;15.57;54.42
22753;BME280;11543;43.144;24.684;2023-04-29T07:49:35;98879.63;;;15.79;52.43
22753;BME280;11543;43.144;24.684;2023-04-29T07:52:01;98885.31;;;15.99;52.97
22753;BME280;11543;43.144;24.684;2023-04-29T07:54:28;98872.59;;;16.14;52.64
22753;BME280;11543;43.144;24.684;2023-04-29T07:56:53;98873.66;;;16.34;51.64
22753;BME280;11543;43.144;24.684;2023-04-29T07:59:19;98878.72;;;16.59;50.41
22753;BME280;11543;43.144;24.684;2023-04-29T08:01:44;98870.38;;;16.75;50.15
22753;BME280;11543;43.144;24.684;2023-04-29T08:04:10;98860.94;;;16.92;51.68
22753;BME280;11543;43.144;24.684;2023-04-29T08:06:35;98865.34;;;17.21;52.66
22753;BME280;11543;43.144;24.684;2023-04-29T08:09:01;98862.94;;;17.33;51.99
22753;BME280;11543;43.144;24.684;2023-04-29T08:11:26;98869.34;;;17.53;52.27
22753;BME280;11543;43.144;24.684;2023-04-29T08:13:52;98878.63;;;17.65;52.66
22753;BME280;11543;43.144;24.684;2023-04-29T08:16:19;98861.81;;;17.76;51.49
22753;BME280;11543;43.144;24.684;2023-04-29T08:18:45;98867.09;;;17.91;51.53
22753;BME280;11543;43.144;24.684;2023-04-29T08:21:11;98866.34;;;18.10;50.75
22753;BME280;11543;43.144;24.684;2023-04-29T08:23:37;98868.13;;;18.31;50.66
22753;BME280;11543;43.144;24.684;2023-04-29T08:26:03;98858.97;;;18.45;49.15
22753;BME280;11543;43.144;24.684;2023-04-29T08:28:29;98861.72;;;18.59;48.50
22753;BME280;11543;43.144;24.684;2023-04-29T08:30:54;98855.28;;;18.73;47.45
22753;BME280;11543;43.144;24.684;2023-04-29T08:33:20;98864.72;;;18.97;47.13
22753;BME280;11543;43.144;24.684;2023-04-29T08:35:46;98867.66;;;19.08;46.92
22753;BME280;11543;43.144;24.684;2023-04-29T08:38:12;98861.19;;;19.16;44.91
22753;BME280;11543;43.144;24.684;2023-04-29T08:40:44;98862.84;;;19.24;45.08
22753;BME280;11543;43.144;24.684;2023-04-29T08:43:12;98857.41;;;19.24;45.04
22753;BME280;11543;43.144;24.684;2023-04-29T08:45:40;98863.25;;;19.34;42.56
22753;BME280;11543;43.144;24.684;2023-04-29T08:48:06;98846.09;;;19.33;43.01
22753;BME280;11543;43.144;24.684;2023-04-29T08:50:39;98848.59;;;19.48;41.16
22753;BME280;11543;43.144;24.684;2023-04-29T08:53:09;98851.09;;;19.63;42.29
22753;BME280;11543;43.144;24.684;2023-04-29T08:55:41;98855.69;;;19.76;41.54
22753;BME280;11543;43.144;24.684;2023-04-29T08:58:07;98843.91;;;19.88;40.35
22753;BME280;11543;43.144;24.684;2023-04-29T09:00:33;98842.44;;;19.99;40.30
22753;BME280;11543;43.144;24.684;2023-04-29T09:03:00;98832.50;;;20.18;39.35
22753;BME280;11543;43.144;24.684;2023-04-29T09:05:29;98842.69;;;20.35;39.16
22753;BME280;11543;43.144;24.684;2023-04-29T09:07:56;98839.72;;;20.44;40.14
22753;BME280;11543;43.144;24.684;2023-04-29T09:10:27;98845.28;;;20.62;37.96
22753;BME280;11543;43.144;24.684;2023-04-29T09:12:55;98846.84;;;20.76;37.66
22753;BME280;11543;43.144;24.684;2023-04-29T09:15:21;98832.16;;;20.77;38.41
22753;BME280;11543;43.144;24.684;2023-04-29T09:17:47;98833.50;;;20.99;38.09
22753;BME280;11543;43.144;24.684;2023-04-29T09:25:14;98824.22;;;21.50;36.46
22753;BME280;11543;43.144;24.684;2023-04-29T09:27:39;98818.47;;;21.58;36.87
22753;BME280;11543;43.144;24.684;2023-04-29T09:30:06;98809.97;;;21.67;36.34
22753;BME280;11543;43.144;24.684;2023-04-29T09:32:31;98803.19;;;21.76;37.19
22753;BME280;11543;43.144;24.684;2023-04-29T09:34:57;98800.44;;;21.94;36.79
22753;BME280;11543;43.144;24.684;2023-04-29T09:37:24;98804.38;;;21.98;37.42
22753;BME280;11543;43.144;24.684;2023-04-29T09:39:50;98791.72;;;22.04;36.66
22753;BME280;11543;43.144;24.684;2023-04-29T09:42:16;98802.16;;;22.25;35.66
22753;BME280;11543;43.144;24.684;2023-04-29T09:44:42;98780.44;;;22.30;35.99
22753;BME280;11543;43.144;24.684;2023-04-29T09:47:09;98784.53;;;22.51;35.57
22753;BME280;11543;43.144;24.684;2023-04-29T09:49:42;98783.19;;;22.72;35.55
22753;BME280;11543;43.144;24.684;2023-04-29T09:52:14;98781.47;;;22.89;34.05
22753;BME280;11543;43.144;24.684;2023-04-29T09:54:42;98777.78;;;23.07;32.73
22753;BME280;11543;43.144;24.684;2023-04-29T09:57:09;98778.03;;;23.17;31.61
22753;BME280;11543;43.144;24.684;2023-04-29T09:59:39;98767.31;;;23.27;32.82
22753;BME280;11543;43.144;24.684;2023-04-29T10:02:16;98768.88;;;23.46;30.97
22753;BME280;11543;43.144;24.684;2023-04-29T10:04:47;98761.84;;;23.50;30.73
22753;BME280;11543;43.144;24.684;2023-04-29T10:07:18;98773.03;;;23.61;31.93
22753;BME280;11543;43.144;24.684;2023-04-29T10:09:45;98753.16;;;23.65;32.57
22753;BME280;11543;43.144;24.684;2023-04-29T10:12:18;98772.84;;;23.91;30.83
22753;BME280;11543;43.144;24.684;2023-04-29T10:14:54;98756.75;;;23.94;30.45
22753;BME280;11543;43.144;24.684;2023-04-29T10:17:39;98764.25;;;23.99;30.63
22753;BME280;11543;43.144;24.684;2023-04-29T10:20:13;98759.22;;;24.07;30.76
22753;BME280;11543;43.144;24.684;2023-04-29T10:22:48;98764.78;;;24.12;30.31
22753;BME280;11543;43.144;24.684;2023-04-29T10:25:18;98765.72;;;24.30;29.80
22753;BME280;11543;43.144;24.684;2023-04-29T10:27:45;98755.94;;;24.34;29.33
22753;BME280;11543;43.144;24.684;2023-04-29T10:30:13;98766.41;;;24.37;29.40
22753;BME280;11543;43.144;24.684;2023-04-29T10:32:42;98756.78;;;24.51;30.14
22753;BME280;11543;43.144;24.684;2023-04-29T10:35:09;98749.31;;;24.63;29.79
22753;BME280;11543;43.144;24.684;2023-04-29T10:37:38;98745.56;;;24.53;29.63
22753;BME280;11543;43.144;24.684;2023-04-29T10:40:13;98744.66;;;24.47;29.40
22753;BME280;11543;43.144;24.684;2023-04-29T10:42:48;98754.03;;;24.51;28.93
22753;BME280;11543;43.144;24.684;2023-04-29T10:45:27;98751.13;;;24.41;28.56
22753;BME280;11543;43.144;24.684;2023-04-29T10:50:40;98748.19;;;24.31;28.73
22753;BME280;11543;43.144;24.684;2023-04-29T10:53:09;98743.88;;;24.35;29.45
22753;BME280;11543;43.144;24.684;2023-04-29T10:55:36;98740.06;;;24.36;30.38
22753;BME280;11543;43.144;24.684;2023-04-29T10:58:04;98747.97;;;24.49;30.73
22753;BME280;11543;43.144;24.684;2023-04-29T11:00:33;98738.34;;;24.63;31.11
22753;BME280;11543;43.144;24.684;2023-04-29T11:03:04;98742.00;;;24.86;30.37
22753;BME280;11543;43.144;24.684;2023-04-29T11:05:34;98733.03;;;25.07;28.58
22753;BME280;11543;43.144;24.684;2023-04-29T11:08:20;98722.38;;;25.11;28.54
22753;BME280;11543;43.144;24.684;2023-04-29T11:10:52;98723.72;;;25.08;28.01
22753;BME280;11543;43.144;24.684;2023-04-29T11:15:50;98711.06;;;25.07;28.04
22753;BME280;11543;43.144;24.684;2023-04-29T11:18:15;98709.91;;;25.03;28.93
22753;BME280;11543;43.144;24.684;2023-04-29T11:23:28;98719.38;;;24.95;28.86
22753;BME280;11543;43.144;24.684;2023-04-29T11:25:54;98712.66;;;25.03;28.92
22753;BME280;11543;43.144;24.684;2023-04-29T11:28:21;98713.06;;;25.12;28.76
22753;BME280;11543;43.144;24.684;2023-04-29T11:30:47;98710.25;;;25.23;28.61
22753;BME280;11543;43.144;24.684;2023-04-29T11:33:14;98711.03;;;25.40;27.77
22753;BME280;11543;43.144;24.684;2023-04-29T11:35:40;98710.06;;;25.52;28.26
22753;BME280;11543;43.144;24.684;2023-04-29T11:38:07;98705.78;;;25.61;28.34
22753;BME280;11543;43.144;24.684;2023-04-29T11:40:33;98696.47;;;25.62;28.14
22753;BME280;11543;43.144;24.684;2023-04-29T11:42:59;98703.03;;;25.61;27.51
22753;BME280;11543;43.144;24.684;2023-04-29T11:45:24;98695.81;;;25.55;29.13
22753;BME280;11543;43.144;24.684;2023-04-29T11:47:50;98697.88;;;25.64;27.59
22753;BME280;11543;43.144;24.684;2023-04-29T11:50:16;98690.66;;;25.58;27.83
22753;BME280;11543;43.144;24.684;2023-04-29T11:52:46;98685.16;;;25.58;27.61
22753;BME280;11543;43.144;24.684;2023-04-29T11:55:12;98682.84;;;25.50;28.14
22753;BME280;11543;43.144;24.684;2023-04-29T11:57:39;98666.50;;;25.38;28.43
22753;BME280;11543;43.144;24.684;2023-04-29T12:00:08;98674.09;;;25.31;28.06
22753;BME280;11543;43.144;24.684;2023-04-29T12:02:34;98670.78;;;25.29;27.06
22753;BME280;11543;43.144;24.684;2023-04-29T12:05:05;98678.13;;;25.24;27.93
22753;BME280;11543;43.144;24.684;2023-04-29T12:07:31;98661.09;;;25.05;28.50
22753;BME280;11543;43.144;24.684;2023-04-29T12:09:57;98655.16;;;25.13;28.18
22753;BME280;11543;43.144;24.684;2023-04-29T12:12:23;98654.38;;;25.34;27.69
22753;BME280;11543;43.144;24.684;2023-04-29T12:14:49;98651.75;;;25.45;28.50
22753;BME280;11543;43.144;24.684;2023-04-29T12:17:16;98650.16;;;25.49;28.08
22753;BME280;11543;43.144;24.684;2023-04-29T12:19:42;98652.78;;;25.38;27.00
22753;BME280;11543;43.144;24.684;2023-04-29T12:22:08;98656.59;;;25.37;27.25
22753;BME280;11543;43.144;24.684;2023-04-29T12:24:38;98656.59;;;25.37;28.06
22753;BME280;11543;43.144;24.684;2023-04-29T12:27:08;98650.28;;;25.37;28.12
22753;BME280;11543;43.144;24.684;2023-04-29T12:29:39;98652.31;;;25.47;27.79
22753;BME280;11543;43.144;24.684;2023-04-29T12:32:05;98643.97;;;25.36;28.44
22753;BME280;11543;43.144;24.684;2023-04-29T12:34:32;98646.81;;;25.47;27.64
22753;BME280;11543;43.144;24.684;2023-04-29T12:36:59;98648.44;;;25.43;27.90
22753;BME280;11543;43.144;24.684;2023-04-29T12:39:26;98654.94;;;25.36;28.46
22753;BME280;11543;43.144;24.684;2023-04-29T12:41:57;98655.84;;;25.42;28.01
22753;BME280;11543;43.144;24.684;2023-04-29T12:44:23;98648.09;;;25.39;27.86
22753;BME280;11543;43.144;24.684;2023-04-29T12:46:49;98645.75;;;25.48;27.93
22753;BME280;11543;43.144;24.684;2023-04-29T12:49:19;98635.78;;;25.42;29.77
22753;BME280;11543;43.144;24.684;2023-04-29T12:51:49;98635.66;;;25.31;29.58
22753;BME280;11543;43.144;24.684;2023-04-29T12:54:15;98640.81;;;25.28;28.66
22753;BME280;11543;43.144;24.684;2023-04-29T12:56:40;98643.81;;;25.26;27.92
22753;BME280;11543;43.144;24.684;2023-04-29T12:59:07;98641.28;;;25.20;27.75
22753;BME280;11543;43.144;24.684;2023-04-29T13:01:34;98638.69;;;25.13;28.69
22753;BME280;11543;43.144;24.684;2023-04-29T13:04:00;98642.19;;;25.08;28.41
22753;BME280;11543;43.144;24.684;2023-04-29T13:06:25;98642.19;;;24.92;28.41
22753;BME280;11543;43.144;24.684;2023-04-29T13:08:51;98629.84;;;24.72;28.47
22753;BME280;11543;43.144;24.684;2023-04-29T13:11:17;98644.06;;;24.69;28.13
22753;BME280;11543;43.144;24.684;2023-04-29T13:13:42;98630.38;;;24.53;28.05
22753;BME280;11543;43.144;24.684;2023-04-29T13:16:08;98633.63;;;24.33;28.14